sensor_id;sensor_type;location;lat;lon;timestamp;P1;durP1;ratioP1;P2;durP2;ratioP2
8482;SDS011;4278;42.668;23.312;2022-08-21T00:01:28;27.30;;;16.02;;
8482;SDS011;4278;42.668;23.312;2022-08-21T00:03:55;27.75;;;14.68;;
8482;SDS011;4278;42.668;23.312;2022-08-21T00:06:22;24.83;;;15.07;;
8482;SDS011;4278;42.668;23.312;2022-08-21T00:08:50;29.38;;;16.00;;
8482;SDS011;4278;42.668;23.312;2022-08-21T00:11:17;30.05;;;15.82;;
8482;SDS011;4278;42.668;23.312;2022-08-21T00:13:43;31.10;;;15.75;;
8482;SDS011;4278;42.668;23.312;2022-08-21T00:16:10;28.48;;;16.05;;
8482;SDS011;4278;42.668;23.312;2022-08-21T00:18:37;31.23;;;16.50;;
8482;SDS011;4278;42.668;23.312;2022-08-21T00:21:04;27.00;;;15.68;;
8482;SDS011;4278;42.668;23.312;2022-08-21T00:23:32;23.77;;;15.32;;
8482;SDS011;4278;42.668;23.312;2022-08-21T00:26:00;24.25;;;15.75;;
8482;SDS011;4278;42.668;23.312;2022-08-21T00:28:27;25.77;;;15.40;;
8482;SDS011;4278;42.668;23.312;2022-08-21T00:30:53;25.65;;;15.05;;
8482;SDS011;4278;42.668;23.312;2022-08-21T00:33:21;28.95;;;15.32;;
8482;SDS011;4278;42.668;23.312;2022-08-21T00:35:48;25.95;;;15.13;;
8482;SDS011;4278;42.668;23.312;2022-08-21T00:38:14;26.35;;;15.73;;
8482;SDS011;4278;42.668;23.312;2022-08-21T00:40:43;22.13;;;13.85;;
8482;SDS011;4278;42.668;23.312;2022-08-21T00:43:12;27.90;;;14.18;;
8482;SDS011;4278;42.668;23.312;2022-08-21T00:45:39;24.25;;;13.55;;
8482;SDS011;4278;42.668;23.312;2022-08-21T00:48:06;24.00;;;14.45;;
8482;SDS011;4278;42.668;23.312;2022-08-21T00:50:34;23.45;;;12.93;;
8482;SDS011;4278;42.668;23.312;2022-08-21T00:53:02;20.67;;;13.10;;
8482;SDS011;4278;42.668;23.312;2022-08-21T00:55:31;22.00;;;12.55;;
8482;SDS011;4278;42.668;23.312;2022-08-21T00:57:59;22.75;;;13.13;;
8482;SDS011;4278;42.668;23.312;2022-08-21T01:00:29;24.27;;;13.13;;
8482;SDS011;4278;42.668;23.312;2022-08-21T01:02:56;20.27;;;12.60;;
8482;SDS011;4278;42.668;23.312;2022-08-21T01:05:23;20.35;;;13.43;;
8482;SDS011;4278;42.668;23.312;2022-08-21T01:07:50;29.58;;;13.57;;
8482;SDS011;4278;42.668;23.312;2022-08-21T01:10:17;21.63;;;12.00;;
8482;SDS011;4278;42.668;23.312;2022-08-21T01:12:44;19.15;;;11.23;;
8482;SDS011;4278;42.668;23.312;2022-08-21T01:15:11;18.23;;;11.52;;
8482;SDS011;4278;42.668;23.312;2022-08-21T01:17:41;22.40;;;11.15;;
8482;SDS011;4278;42.668;23.312;2022-08-21T01:20:09;22.60;;;13.02;;
8482;SDS011;4278;42.668;23.312;2022-08-21T01:22:38;17.23;;;11.98;;
8482;SDS011;4278;42.668;23.312;2022-08-21T01:25:05;20.88;;;11.77;;
8482;SDS011;4278;42.668;23.312;2022-08-21T01:27:32;19.88;;;12.52;;
8482;SDS011;4278;42.668;23.312;2022-08-21T01:30:02;22.52;;;11.68;;
8482;SDS011;4278;42.668;23.312;2022-08-21T01:32:29;22.52;;;10.98;;
8482;SDS011;4278;42.668;23.312;2022-08-21T01:34:56;22.48;;;10.30;;
8482;SDS011;4278;42.668;23.312;2022-08-21T01:37:22;16.73;;;9.77;;
8482;SDS011;4278;42.668;23.312;2022-08-21T01:39:50;15.95;;;8.57;;
8482;SDS011;4278;42.668;23.312;2022-08-21T01:42:17;14.30;;;9.38;;
8482;SDS011;4278;42.668;23.312;2022-08-21T01:44:43;15.23;;;7.13;;
8482;SDS011;4278;42.668;23.312;2022-08-21T01:47:11;11.35;;;6.47;;
8482;SDS011;4278;42.668;23.312;2022-08-21T01:49:38;13.25;;;7.20;;
8482;SDS011;4278;42.668;23.312;2022-08-21T01:52:05;10.10;;;6.53;;
8482;SDS011;4278;42.668;23.312;2022-08-21T01:54:31;11.90;;;5.95;;
8482;SDS011;4278;42.668;23.312;2022-08-21T01:57:00;8.25;;;4.95;;
8482;SDS011;4278;42.668;23.312;2022-08-21T01:59:26;13.27;;;5.50;;
8482;SDS011;4278;42.668;23.312;2022-08-21T02:01:53;10.77;;;5.70;;
8482;SDS011;4278;42.668;23.312;2022-08-21T02:04:20;8.20;;;5.55;;
8482;SDS011;4278;42.668;23.312;2022-08-21T02:06:47;13.82;;;6.15;;
8482;SDS011;4278;42.668;23.312;2022-08-21T02:09:14;8.68;;;5.20;;
8482;SDS011;4278;42.668;23.312;2022-08-21T02:11:41;9.82;;;5.25;;
8482;SDS011;4278;42.668;23.312;2022-08-21T02:14:10;10.63;;;5.40;;
8482;SDS011;4278;42.668;23.312;2022-08-21T02:16:37;10.43;;;5.90;;
8482;SDS011;4278;42.668;23.312;2022-08-21T02:19:04;11.77;;;5.10;;
8482;SDS011;4278;42.668;23.312;2022-08-21T02:21:31;8.60;;;5.10;;
8482;SDS011;4278;42.668;23.312;2022-08-21T02:23:58;10.15;;;5.13;;
8482;SDS011;4278;42.668;23.312;2022-08-21T02:26:24;10.13;;;6.45;;
8482;SDS011;4278;42.668;23.312;2022-08-21T02:28:51;10.63;;;5.55;;
8482;SDS011;4278;42.668;23.312;2022-08-21T02:31:19;10.40;;;7.03;;
8482;SDS011;4278;42.668;23.312;2022-08-21T02:33:46;12.52;;;6.63;;
8482;SDS011;4278;42.668;23.312;2022-08-21T02:36:12;8.32;;;4.90;;
8482;SDS011;4278;42.668;23.312;2022-08-21T02:38:39;7.82;;;4.55;;
8482;SDS011;4278;42.668;23.312;2022-08-21T02:41:07;7.72;;;4.63;;
8482;SDS011;4278;42.668;23.312;2022-08-21T02:43:34;11.73;;;5.05;;
8482;SDS011;4278;42.668;23.312;2022-08-21T02:46:02;10.40;;;4.68;;
8482;SDS011;4278;42.668;23.312;2022-08-21T02:48:31;11.93;;;6.32;;
8482;SDS011;4278;42.668;23.312;2022-08-21T02:50:58;9.60;;;5.22;;
8482;SDS011;4278;42.668;23.312;2022-08-21T02:53:25;11.93;;;5.88;;
8482;SDS011;4278;42.668;23.312;2022-08-21T02:55:52;9.32;;;5.38;;
8482;SDS011;4278;42.668;23.312;2022-08-21T02:58:21;12.52;;;5.53;;
8482;SDS011;4278;42.668;23.312;2022-08-21T03:00:48;9.18;;;5.18;;
8482;SDS011;4278;42.668;23.312;2022-08-21T03:03:15;14.07;;;5.68;;
8482;SDS011;4278;42.668;23.312;2022-08-21T03:05:43;7.40;;;5.10;;
8482;SDS011;4278;42.668;23.312;2022-08-21T03:08:11;9.90;;;5.55;;
8482;SDS011;4278;42.668;23.312;2022-08-21T03:10:39;10.23;;;5.90;;
8482;SDS011;4278;42.668;23.312;2022-08-21T03:13:06;9.98;;;6.05;;
8482;SDS011;4278;42.668;23.312;2022-08-21T03:15:32;15.27;;;7.47;;
8482;SDS011;4278;42.668;23.312;2022-08-21T03:17:59;10.55;;;6.65;;
8482;SDS011;4278;42.668;23.312;2022-08-21T03:20:26;11.98;;;6.72;;
8482;SDS011;4278;42.668;23.312;2022-08-21T03:22:54;12.27;;;7.97;;
8482;SDS011;4278;42.668;23.312;2022-08-21T03:25:22;9.85;;;7.57;;
8482;SDS011;4278;42.668;23.312;2022-08-21T03:27:49;17.92;;;9.40;;
8482;SDS011;4278;42.668;23.312;2022-08-21T03:30:16;13.93;;;9.23;;
8482;SDS011;4278;42.668;23.312;2022-08-21T03:32:43;19.38;;;9.27;;
8482;SDS011;4278;42.668;23.312;2022-08-21T03:35:11;21.10;;;11.07;;
8482;SDS011;4278;42.668;23.312;2022-08-21T03:37:37;26.55;;;12.45;;
8482;SDS011;4278;42.668;23.312;2022-08-21T03:40:06;25.08;;;11.75;;
8482;SDS011;4278;42.668;23.312;2022-08-21T03:42:33;25.52;;;12.07;;
8482;SDS011;4278;42.668;23.312;2022-08-21T03:45:00;22.95;;;12.85;;
8482;SDS011;4278;42.668;23.312;2022-08-21T03:47:27;27.50;;;14.27;;
8482;SDS011;4278;42.668;23.312;2022-08-21T03:49:53;23.65;;;14.32;;
8482;SDS011;4278;42.668;23.312;2022-08-21T03:52:20;27.13;;;13.80;;
8482;SDS011;4278;42.668;23.312;2022-08-21T03:54:48;24.63;;;13.95;;
8482;SDS011;4278;42.668;23.312;2022-08-21T03:57:16;24.83;;;12.40;;
8482;SDS011;4278;42.668;23.312;2022-08-21T03:59:43;24.98;;;13.95;;
8482;SDS011;4278;42.668;23.312;2022-08-21T04:02:10;21.60;;;12.52;;
8482;SDS011;4278;42.668;23.312;2022-08-21T04:04:36;16.55;;;10.48;;
8482;SDS011;4278;42.668;23.312;2022-08-21T04:07:03;16.05;;;9.88;;
8482;SDS011;4278;42.668;23.312;2022-08-21T04:09:30;17.63;;;9.50;;
8482;SDS011;4278;42.668;23.312;2022-08-21T04:11:56;13.20;;;7.50;;
8482;SDS011;4278;42.668;23.312;2022-08-21T04:14:26;12.55;;;7.20;;
8482;SDS011;4278;42.668;23.312;2022-08-21T04:16:52;14.52;;;6.90;;
8482;SDS011;4278;42.668;23.312;2022-08-21T04:19:19;9.73;;;6.97;;
8482;SDS011;4278;42.668;23.312;2022-08-21T04:21:45;12.02;;;6.18;;
8482;SDS011;4278;42.668;23.312;2022-08-21T04:24:12;9.63;;;5.65;;
8482;SDS011;4278;42.668;23.312;2022-08-21T04:26:38;9.55;;;5.88;;
8482;SDS011;4278;42.668;23.312;2022-08-21T04:29:05;11.65;;;5.88;;
8482;SDS011;4278;42.668;23.312;2022-08-21T04:31:34;11.50;;;6.78;;
8482;SDS011;4278;42.668;23.312;2022-08-21T04:34:01;8.25;;;5.57;;
8482;SDS011;4278;42.668;23.312;2022-08-21T04:36:28;10.50;;;6.18;;
8482;SDS011;4278;42.668;23.312;2022-08-21T04:38:55;16.38;;;7.72;;
8482;SDS011;4278;42.668;23.312;2022-08-21T04:41:22;11.57;;;6.82;;
8482;SDS011;4278;42.668;23.312;2022-08-21T04:43:48;11.20;;;6.72;;
8482;SDS011;4278;42.668;23.312;2022-08-21T04:46:15;11.50;;;6.82;;
8482;SDS011;4278;42.668;23.312;2022-08-21T04:48:43;11.43;;;6.50;;
8482;SDS011;4278;42.668;23.312;2022-08-21T04:51:10;12.18;;;6.95;;
8482;SDS011;4278;42.668;23.312;2022-08-21T04:53:39;9.43;;;7.05;;
8482;SDS011;4278;42.668;23.312;2022-08-21T04:56:07;13.50;;;7.35;;
8482;SDS011;4278;42.668;23.312;2022-08-21T04:58:34;13.88;;;7.65;;
8482;SDS011;4278;42.668;23.312;2022-08-21T05:01:03;10.82;;;7.50;;
8482;SDS011;4278;42.668;23.312;2022-08-21T05:03:30;12.20;;;7.32;;
8482;SDS011;4278;42.668;23.312;2022-08-21T05:05:59;11.07;;;8.10;;
8482;SDS011;4278;42.668;23.312;2022-08-21T05:08:26;12.02;;;6.80;;
8482;SDS011;4278;42.668;23.312;2022-08-21T05:10:54;10.85;;;6.72;;
8482;SDS011;4278;42.668;23.312;2022-08-21T05:13:20;11.00;;;6.10;;
8482;SDS011;4278;42.668;23.312;2022-08-21T05:15:47;10.05;;;6.10;;
8482;SDS011;4278;42.668;23.312;2022-08-21T05:18:14;12.45;;;6.35;;
8482;SDS011;4278;42.668;23.312;2022-08-21T05:20:40;11.73;;;6.30;;
8482;SDS011;4278;42.668;23.312;2022-08-21T05:23:08;8.50;;;6.75;;
8482;SDS011;4278;42.668;23.312;2022-08-21T05:25:35;9.82;;;6.28;;
8482;SDS011;4278;42.668;23.312;2022-08-21T05:28:03;8.90;;;6.40;;
8482;SDS011;4278;42.668;23.312;2022-08-21T05:30:30;9.93;;;6.35;;
8482;SDS011;4278;42.668;23.312;2022-08-21T05:32:57;8.25;;;5.97;;
8482;SDS011;4278;42.668;23.312;2022-08-21T05:35:24;13.55;;;6.00;;
8482;SDS011;4278;42.668;23.312;2022-08-21T05:37:50;9.90;;;5.40;;
8482;SDS011;4278;42.668;23.312;2022-08-21T05:40:18;11.13;;;5.18;;
8482;SDS011;4278;42.668;23.312;2022-08-21T05:42:45;6.82;;;5.20;;
8482;SDS011;4278;42.668;23.312;2022-08-21T05:45:11;9.60;;;4.90;;
8482;SDS011;4278;42.668;23.312;2022-08-21T05:47:38;9.70;;;5.57;;
8482;SDS011;4278;42.668;23.312;2022-08-21T05:50:05;8.20;;;5.18;;
8482;SDS011;4278;42.668;23.312;2022-08-21T05:52:32;8.18;;;5.28;;
8482;SDS011;4278;42.668;23.312;2022-08-21T05:54:58;9.45;;;5.82;;
8482;SDS011;4278;42.668;23.312;2022-08-21T05:57:26;10.27;;;7.03;;
8482;SDS011;4278;42.668;23.312;2022-08-21T05:59:53;11.25;;;7.15;;
8482;SDS011;4278;42.668;23.312;2022-08-21T06:02:19;11.82;;;7.72;;
8482;SDS011;4278;42.668;23.312;2022-08-21T06:04:46;10.48;;;6.32;;
8482;SDS011;4278;42.668;23.312;2022-08-21T06:07:13;9.70;;;6.47;;
8482;SDS011;4278;42.668;23.312;2022-08-21T06:09:40;10.98;;;7.00;;
8482;SDS011;4278;42.668;23.312;2022-08-21T06:12:07;12.07;;;7.00;;
8482;SDS011;4278;42.668;23.312;2022-08-21T06:14:36;16.80;;;6.82;;
8482;SDS011;4278;42.668;23.312;2022-08-21T06:17:03;11.60;;;6.63;;
8482;SDS011;4278;42.668;23.312;2022-08-21T06:19:30;12.20;;;7.10;;
8482;SDS011;4278;42.668;23.312;2022-08-21T06:21:56;12.27;;;7.00;;
8482;SDS011;4278;42.668;23.312;2022-08-21T06:24:23;12.18;;;6.40;;
8482;SDS011;4278;42.668;23.312;2022-08-21T06:26:50;9.93;;;6.75;;
8482;SDS011;4278;42.668;23.312;2022-08-21T06:29:16;9.50;;;6.90;;
8482;SDS011;4278;42.668;23.312;2022-08-21T06:31:46;11.95;;;5.80;;
8482;SDS011;4278;42.668;23.312;2022-08-21T06:34:13;10.52;;;6.15;;
8482;SDS011;4278;42.668;23.312;2022-08-21T06:36:39;9.30;;;6.22;;
8482;SDS011;4278;42.668;23.312;2022-08-21T06:39:06;7.90;;;6.30;;
8482;SDS011;4278;42.668;23.312;2022-08-21T06:41:32;11.45;;;6.22;;
8482;SDS011;4278;42.668;23.312;2022-08-21T06:43:59;13.95;;;7.10;;
8482;SDS011;4278;42.668;23.312;2022-08-21T06:46:26;19.23;;;7.90;;
8482;SDS011;4278;42.668;23.312;2022-08-21T06:48:55;12.85;;;7.20;;
8482;SDS011;4278;42.668;23.312;2022-08-21T06:51:22;11.70;;;8.13;;
8482;SDS011;4278;42.668;23.312;2022-08-21T06:53:48;13.85;;;7.82;;
8482;SDS011;4278;42.668;23.312;2022-08-21T06:56:15;12.05;;;6.40;;
8482;SDS011;4278;42.668;23.312;2022-08-21T06:58:42;15.48;;;8.10;;
8482;SDS011;4278;42.668;23.312;2022-08-21T07:01:08;13.70;;;8.38;;
8482;SDS011;4278;42.668;23.312;2022-08-21T07:03:36;14.75;;;8.52;;
8482;SDS011;4278;42.668;23.312;2022-08-21T07:06:05;11.90;;;7.53;;
8482;SDS011;4278;42.668;23.312;2022-08-21T07:08:31;12.00;;;9.05;;
8482;SDS011;4278;42.668;23.312;2022-08-21T07:10:59;15.05;;;9.20;;
8482;SDS011;4278;42.668;23.312;2022-08-21T07:13:26;10.25;;;7.65;;
8482;SDS011;4278;42.668;23.312;2022-08-21T07:15:53;10.95;;;6.97;;
8482;SDS011;4278;42.668;23.312;2022-08-21T07:18:20;15.13;;;8.68;;
8482;SDS011;4278;42.668;23.312;2022-08-21T07:20:46;15.55;;;8.43;;
8482;SDS011;4278;42.668;23.312;2022-08-21T07:23:16;13.88;;;7.65;;
8482;SDS011;4278;42.668;23.312;2022-08-21T07:25:45;9.60;;;7.68;;
8482;SDS011;4278;42.668;23.312;2022-08-21T07:28:12;11.30;;;7.65;;
8482;SDS011;4278;42.668;23.312;2022-08-21T07:30:38;12.50;;;7.65;;
8482;SDS011;4278;42.668;23.312;2022-08-21T07:33:05;14.45;;;7.07;;
8482;SDS011;4278;42.668;23.312;2022-08-21T07:35:32;15.20;;;6.25;;
8482;SDS011;4278;42.668;23.312;2022-08-21T07:37:59;9.40;;;5.65;;
8482;SDS011;4278;42.668;23.312;2022-08-21T07:40:26;8.90;;;6.47;;
8482;SDS011;4278;42.668;23.312;2022-08-21T07:42:53;11.38;;;6.53;;
8482;SDS011;4278;42.668;23.312;2022-08-21T07:45:20;9.80;;;5.72;;
8482;SDS011;4278;42.668;23.312;2022-08-21T07:47:49;8.75;;;5.68;;
8482;SDS011;4278;42.668;23.312;2022-08-21T07:50:16;9.80;;;5.63;;
8482;SDS011;4278;42.668;23.312;2022-08-21T07:52:43;11.65;;;6.00;;
8482;SDS011;4278;42.668;23.312;2022-08-21T07:55:10;12.45;;;6.80;;
8482;SDS011;4278;42.668;23.312;2022-08-21T07:57:40;16.05;;;7.25;;
8482;SDS011;4278;42.668;23.312;2022-08-21T08:00:08;14.55;;;7.53;;
8482;SDS011;4278;42.668;23.312;2022-08-21T08:02:35;13.70;;;7.65;;
8482;SDS011;4278;42.668;23.312;2022-08-21T08:05:03;11.35;;;6.97;;
8482;SDS011;4278;42.668;23.312;2022-08-21T08:07:30;10.90;;;7.35;;
8482;SDS011;4278;42.668;23.312;2022-08-21T08:09:57;13.00;;;6.97;;
8482;SDS011;4278;42.668;23.312;2022-08-21T08:12:23;11.48;;;6.95;;
8482;SDS011;4278;42.668;23.312;2022-08-21T08:14:55;10.55;;;7.82;;
8482;SDS011;4278;42.668;23.312;2022-08-21T08:17:22;12.38;;;8.02;;
8482;SDS011;4278;42.668;23.312;2022-08-21T08:19:48;11.82;;;7.32;;
8482;SDS011;4278;42.668;23.312;2022-08-21T08:22:16;15.10;;;7.80;;
8482;SDS011;4278;42.668;23.312;2022-08-21T08:24:44;10.70;;;7.20;;
8482;SDS011;4278;42.668;23.312;2022-08-21T08:27:10;12.63;;;7.57;;
8482;SDS011;4278;42.668;23.312;2022-08-21T08:29:37;15.68;;;7.72;;
8482;SDS011;4278;42.668;23.312;2022-08-21T08:32:05;8.93;;;7.25;;
8482;SDS011;4278;42.668;23.312;2022-08-21T08:34:33;10.68;;;6.95;;
8482;SDS011;4278;42.668;23.312;2022-08-21T08:37:00;14.93;;;7.65;;
8482;SDS011;4278;42.668;23.312;2022-08-21T08:39:26;10.68;;;6.32;;
8482;SDS011;4278;42.668;23.312;2022-08-21T08:41:54;10.63;;;7.28;;
8482;SDS011;4278;42.668;23.312;2022-08-21T08:44:22;11.75;;;7.65;;
8482;SDS011;4278;42.668;23.312;2022-08-21T08:46:49;11.65;;;7.00;;
8482;SDS011;4278;42.668;23.312;2022-08-21T08:49:19;13.13;;;8.10;;
8482;SDS011;4278;42.668;23.312;2022-08-21T08:51:46;15.52;;;8.43;;
8482;SDS011;4278;42.668;23.312;2022-08-21T08:54:15;13.95;;;8.05;;
8482;SDS011;4278;42.668;23.312;2022-08-21T08:56:44;10.05;;;7.40;;
8482;SDS011;4278;42.668;23.312;2022-08-21T08:59:13;13.98;;;6.80;;
8482;SDS011;4278;42.668;23.312;2022-08-21T09:01:41;13.23;;;7.05;;
8482;SDS011;4278;42.668;23.312;2022-08-21T09:04:08;9.90;;;6.15;;
8482;SDS011;4278;42.668;23.312;2022-08-21T09:06:43;10.45;;;5.55;;
8482;SDS011;4278;42.668;23.312;2022-08-21T09:09:15;13.48;;;7.28;;
8482;SDS011;4278;42.668;23.312;2022-08-21T09:11:48;10.27;;;5.60;;
8482;SDS011;4278;42.668;23.312;2022-08-21T09:14:21;14.13;;;7.15;;
8482;SDS011;4278;42.668;23.312;2022-08-21T09:16:52;10.65;;;6.13;;
8482;SDS011;4278;42.668;23.312;2022-08-21T09:19:25;10.30;;;6.15;;
8482;SDS011;4278;42.668;23.312;2022-08-21T09:21:55;9.25;;;5.32;;
8482;SDS011;4278;42.668;23.312;2022-08-21T09:24:26;9.07;;;5.78;;
8482;SDS011;4278;42.668;23.312;2022-08-21T09:27:00;9.98;;;5.57;;
8482;SDS011;4278;42.668;23.312;2022-08-21T09:29:30;8.52;;;5.68;;
8482;SDS011;4278;42.668;23.312;2022-08-21T09:31:57;12.52;;;5.97;;
8482;SDS011;4278;42.668;23.312;2022-08-21T09:34:25;6.63;;;4.88;;
8482;SDS011;4278;42.668;23.312;2022-08-21T09:36:52;9.25;;;5.72;;
8482;SDS011;4278;42.668;23.312;2022-08-21T09:39:24;10.10;;;6.00;;
8482;SDS011;4278;42.668;23.312;2022-08-21T09:41:54;9.88;;;5.88;;
8482;SDS011;4278;42.668;23.312;2022-08-21T09:44:24;14.10;;;6.07;;
8482;SDS011;4278;42.668;23.312;2022-08-21T09:46:51;10.05;;;5.30;;
8482;SDS011;4278;42.668;23.312;2022-08-21T09:49:26;9.55;;;5.72;;
8482;SDS011;4278;42.668;23.312;2022-08-21T09:51:52;11.15;;;5.35;;
8482;SDS011;4278;42.668;23.312;2022-08-21T09:54:20;10.07;;;5.38;;
8482;SDS011;4278;42.668;23.312;2022-08-21T09:56:55;8.93;;;4.80;;
8482;SDS011;4278;42.668;23.312;2022-08-21T09:59:40;9.20;;;4.70;;
8482;SDS011;4278;42.668;23.312;2022-08-21T10:04:49;5.90;;;4.65;;
8482;SDS011;4278;42.668;23.312;2022-08-21T10:07:19;12.35;;;5.35;;
8482;SDS011;4278;42.668;23.312;2022-08-21T10:09:46;9.63;;;5.22;;
8482;SDS011;4278;42.668;23.312;2022-08-21T10:12:15;9.80;;;5.45;;
8482;SDS011;4278;42.668;23.312;2022-08-21T10:14:47;11.57;;;5.40;;
8482;SDS011;4278;42.668;23.312;2022-08-21T10:17:16;8.05;;;5.00;;
8482;SDS011;4278;42.668;23.312;2022-08-21T10:19:47;9.35;;;5.35;;
8482;SDS011;4278;42.668;23.312;2022-08-21T10:22:21;9.10;;;5.95;;
8482;SDS011;4278;42.668;23.312;2022-08-21T10:24:52;9.32;;;4.97;;
8482;SDS011;4278;42.668;23.312;2022-08-21T10:27:25;10.00;;;5.70;;
8482;SDS011;4278;42.668;23.312;2022-08-21T10:29:55;10.07;;;5.50;;
8482;SDS011;4278;42.668;23.312;2022-08-21T10:32:37;9.65;;;6.00;;
8482;SDS011;4278;42.668;23.312;2022-08-21T10:35:08;11.88;;;5.30;;
8482;SDS011;4278;42.668;23.312;2022-08-21T10:37:39;9.68;;;5.28;;
8482;SDS011;4278;42.668;23.312;2022-08-21T10:40:11;11.10;;;6.05;;
8482;SDS011;4278;42.668;23.312;2022-08-21T10:42:46;10.23;;;5.20;;
8482;SDS011;4278;42.668;23.312;2022-08-21T10:45:15;9.45;;;5.30;;
8482;SDS011;4278;42.668;23.312;2022-08-21T10:47:48;9.18;;;5.15;;
8482;SDS011;4278;42.668;23.312;2022-08-21T10:50:17;7.78;;;5.00;;
8482;SDS011;4278;42.668;23.312;2022-08-21T10:52:51;10.40;;;4.72;;
8482;SDS011;4278;42.668;23.312;2022-08-21T10:55:22;9.38;;;4.85;;
8482;SDS011;4278;42.668;23.312;2022-08-21T10:57:51;8.25;;;4.72;;
8482;SDS011;4278;42.668;23.312;2022-08-21T11:00:21;13.15;;;5.25;;
8482;SDS011;4278;42.668;23.312;2022-08-21T11:02:49;7.93;;;4.68;;
8482;SDS011;4278;42.668;23.312;2022-08-21T11:05:17;6.18;;;4.68;;
8482;SDS011;4278;42.668;23.312;2022-08-21T11:07:45;8.65;;;5.43;;
8482;SDS011;4278;42.668;23.312;2022-08-21T11:10:15;9.05;;;4.82;;
8482;SDS011;4278;42.668;23.312;2022-08-21T11:12:44;6.18;;;4.78;;
8482;SDS011;4278;42.668;23.312;2022-08-21T11:15:23;6.45;;;4.75;;
8482;SDS011;4278;42.668;23.312;2022-08-21T11:17:52;9.10;;;4.93;;
8482;SDS011;4278;42.668;23.312;2022-08-21T11:20:22;10.82;;;6.18;;
8482;SDS011;4278;42.668;23.312;2022-08-21T11:22:53;7.70;;;5.15;;
8482;SDS011;4278;42.668;23.312;2022-08-21T11:25:23;10.45;;;5.10;;
8482;SDS011;4278;42.668;23.312;2022-08-21T11:27:52;6.82;;;4.40;;
8482;SDS011;4278;42.668;23.312;2022-08-21T11:30:21;7.50;;;4.72;;
8482;SDS011;4278;42.668;23.312;2022-08-21T11:33:03;8.07;;;4.25;;
8482;SDS011;4278;42.668;23.312;2022-08-21T11:35:34;7.65;;;4.97;;
8482;SDS011;4278;42.668;23.312;2022-08-21T11:38:12;10.43;;;4.60;;
8482;SDS011;4278;42.668;23.312;2022-08-21T11:40:45;5.55;;;4.45;;
8482;SDS011;4278;42.668;23.312;2022-08-21T11:43:17;6.88;;;4.88;;
8482;SDS011;4278;42.668;23.312;2022-08-21T11:45:49;7.38;;;4.43;;
8482;SDS011;4278;42.668;23.312;2022-08-21T11:48:18;10.48;;;5.13;;
8482;SDS011;4278;42.668;23.312;2022-08-21T11:50:48;8.60;;;4.57;;
8482;SDS011;4278;42.668;23.312;2022-08-21T11:53:16;7.80;;;5.13;;
8482;SDS011;4278;42.668;23.312;2022-08-21T11:55:45;8.55;;;4.82;;
8482;SDS011;4278;42.668;23.312;2022-08-21T11:58:15;7.03;;;4.50;;
8482;SDS011;4278;42.668;23.312;2022-08-21T12:00:45;6.85;;;4.28;;
8482;SDS011;4278;42.668;23.312;2022-08-21T12:03:14;7.60;;;4.80;;
8482;SDS011;4278;42.668;23.312;2022-08-21T12:05:42;11.07;;;4.80;;
8482;SDS011;4278;42.668;23.312;2022-08-21T12:08:11;11.80;;;5.78;;
8482;SDS011;4278;42.668;23.312;2022-08-21T12:10:38;8.82;;;5.38;;
8482;SDS011;4278;42.668;23.312;2022-08-21T12:13:07;9.85;;;5.18;;
8482;SDS011;4278;42.668;23.312;2022-08-21T12:15:35;7.13;;;4.70;;
8482;SDS011;4278;42.668;23.312;2022-08-21T12:18:02;11.05;;;5.90;;
8482;SDS011;4278;42.668;23.312;2022-08-21T12:23:26;5.88;;;4.50;;
8482;SDS011;4278;42.668;23.312;2022-08-21T12:28:43;8.63;;;5.95;;
8482;SDS011;4278;42.668;23.312;2022-08-21T12:31:17;8.23;;;4.93;;
8482;SDS011;4278;42.668;23.312;2022-08-21T12:33:47;8.02;;;4.95;;
8482;SDS011;4278;42.668;23.312;2022-08-21T12:36:17;7.03;;;5.15;;
8482;SDS011;4278;42.668;23.312;2022-08-21T12:38:48;10.52;;;4.88;;
8482;SDS011;4278;42.668;23.312;2022-08-21T12:41:17;9.02;;;5.03;;
8482;SDS011;4278;42.668;23.312;2022-08-21T12:43:46;6.70;;;4.95;;
8482;SDS011;4278;42.668;23.312;2022-08-21T12:46:15;14.85;;;5.38;;
8482;SDS011;4278;42.668;23.312;2022-08-21T12:48:44;11.00;;;4.72;;
8482;SDS011;4278;42.668;23.312;2022-08-21T12:51:13;8.13;;;4.40;;
8482;SDS011;4278;42.668;23.312;2022-08-21T12:53:42;10.15;;;5.15;;
8482;SDS011;4278;42.668;23.312;2022-08-21T12:56:12;6.35;;;4.88;;
8482;SDS011;4278;42.668;23.312;2022-08-21T12:58:39;6.45;;;4.80;;
8482;SDS011;4278;42.668;23.312;2022-08-21T13:01:07;10.20;;;5.22;;
8482;SDS011;4278;42.668;23.312;2022-08-21T13:03:35;5.25;;;3.92;;
8482;SDS011;4278;42.668;23.312;2022-08-21T13:06:02;6.75;;;4.25;;
8482;SDS011;4278;42.668;23.312;2022-08-21T13:08:29;9.00;;;4.97;;
8482;SDS011;4278;42.668;23.312;2022-08-21T13:10:57;18.65;;;11.68;;
8482;SDS011;4278;42.668;23.312;2022-08-21T13:13:26;15.30;;;9.20;;
8482;SDS011;4278;42.668;23.312;2022-08-21T13:15:56;6.35;;;4.60;;
8482;SDS011;4278;42.668;23.312;2022-08-21T13:18:24;8.40;;;4.43;;
8482;SDS011;4278;42.668;23.312;2022-08-21T13:20:51;7.70;;;4.70;;
8482;SDS011;4278;42.668;23.312;2022-08-21T13:23:20;7.68;;;4.50;;
8482;SDS011;4278;42.668;23.312;2022-08-21T13:25:47;9.98;;;5.13;;
8482;SDS011;4278;42.668;23.312;2022-08-21T13:28:13;9.48;;;4.15;;
8482;SDS011;4278;42.668;23.312;2022-08-21T13:30:42;8.40;;;4.65;;
8482;SDS011;4278;42.668;23.312;2022-08-21T13:33:09;7.57;;;4.28;;
8482;SDS011;4278;42.668;23.312;2022-08-21T13:35:46;8.88;;;5.18;;
8482;SDS011;4278;42.668;23.312;2022-08-21T13:38:13;8.80;;;4.57;;
8482;SDS011;4278;42.668;23.312;2022-08-21T13:40:41;10.95;;;5.45;;
8482;SDS011;4278;42.668;23.312;2022-08-21T13:43:10;7.75;;;4.70;;
8482;SDS011;4278;42.668;23.312;2022-08-21T13:45:38;9.35;;;5.15;;
8482;SDS011;4278;42.668;23.312;2022-08-21T13:48:05;6.80;;;4.30;;
8482;SDS011;4278;42.668;23.312;2022-08-21T13:50:33;7.78;;;4.60;;
8482;SDS011;4278;42.668;23.312;2022-08-21T13:53:01;7.47;;;4.20;;
8482;SDS011;4278;42.668;23.312;2022-08-21T13:55:35;7.63;;;4.88;;
8482;SDS011;4278;42.668;23.312;2022-08-21T13:58:03;9.57;;;4.90;;
8482;SDS011;4278;42.668;23.312;2022-08-21T14:00:30;7.30;;;4.68;;
8482;SDS011;4278;42.668;23.312;2022-08-21T14:03:00;6.15;;;4.75;;
8482;SDS011;4278;42.668;23.312;2022-08-21T14:05:30;9.90;;;4.88;;
8482;SDS011;4278;42.668;23.312;2022-08-21T14:07:58;7.72;;;4.50;;
8482;SDS011;4278;42.668;23.312;2022-08-21T14:10:27;6.38;;;4.97;;
8482;SDS011;4278;42.668;23.312;2022-08-21T14:12:55;8.35;;;4.25;;
8482;SDS011;4278;42.668;23.312;2022-08-21T14:15:24;7.40;;;5.13;;
8482;SDS011;4278;42.668;23.312;2022-08-21T14:17:51;7.85;;;4.63;;
8482;SDS011;4278;42.668;23.312;2022-08-21T14:20:26;11.35;;;4.93;;
8482;SDS011;4278;42.668;23.312;2022-08-21T14:22:54;7.15;;;4.70;;
8482;SDS011;4278;42.668;23.312;2022-08-21T14:25:28;10.43;;;4.80;;
8482;SDS011;4278;42.668;23.312;2022-08-21T14:27:56;8.68;;;5.22;;
8482;SDS011;4278;42.668;23.312;2022-08-21T14:30:27;9.85;;;5.90;;
8482;SDS011;4278;42.668;23.312;2022-08-21T14:32:54;11.00;;;5.32;;
8482;SDS011;4278;42.668;23.312;2022-08-21T14:35:21;10.25;;;5.57;;
8482;SDS011;4278;42.668;23.312;2022-08-21T14:37:48;9.32;;;6.00;;
8482;SDS011;4278;42.668;23.312;2022-08-21T14:40:17;12.02;;;5.90;;
8482;SDS011;4278;42.668;23.312;2022-08-21T14:42:44;9.77;;;5.70;;
8482;SDS011;4278;42.668;23.312;2022-08-21T14:45:13;9.27;;;5.53;;
8482;SDS011;4278;42.668;23.312;2022-08-21T14:47:40;10.90;;;5.05;;
8482;SDS011;4278;42.668;23.312;2022-08-21T14:50:08;11.07;;;5.68;;
8482;SDS011;4278;42.668;23.312;2022-08-21T14:52:34;12.07;;;5.85;;
8482;SDS011;4278;42.668;23.312;2022-08-21T14:55:02;10.20;;;6.10;;
8482;SDS011;4278;42.668;23.312;2022-08-21T14:57:30;12.82;;;7.03;;
8482;SDS011;4278;42.668;23.312;2022-08-21T14:59:57;10.70;;;6.47;;
8482;SDS011;4278;42.668;23.312;2022-08-21T15:02:24;11.30;;;7.03;;
8482;SDS011;4278;42.668;23.312;2022-08-21T15:04:50;10.70;;;7.35;;